createdAt,value
2019-04-26T00:00:39.433Z,4.80
2019-04-26T00:03:07.971Z,3.92
2019-04-26T00:05:36.431Z,2.60
2019-04-26T00:08:03.843Z,2.37
2019-04-26T00:10:34.992Z,1.75
2019-04-26T00:13:06.145Z,2.42
2019-04-26T00:15:46.779Z,2.33
2019-04-26T00:18:13.179Z,2.35
2019-04-26T00:20:39.563Z,1.87
2019-04-26T00:23:05.935Z,3.00
2019-04-26T00:25:52.206Z,1.67
2019-04-26T00:28:21.177Z,3.37
2019-04-26T00:30:47.503Z,3.17
2019-04-26T00:33:15.173Z,2.70
2019-04-26T00:35:47.605Z,2.37
2019-04-26T00:38:09.824Z,3.85
2019-04-26T00:40:36.792Z,4.05
2019-04-26T00:43:03.220Z,2.95
2019-04-26T00:45:33.073Z,3.92
2019-04-26T00:48:00.256Z,1.98
2019-04-26T00:50:26.718Z,4.80
2019-04-26T00:52:54.132Z,2.17
2019-04-26T00:55:21.789Z,4.55
2019-04-26T00:57:48.889Z,4.70
2019-04-26T01:00:17.967Z,3.72
2019-04-26T01:02:46.448Z,2.98
2019-04-26T01:05:12.709Z,3.20
2019-04-26T01:07:39.580Z,4.67
2019-04-26T01:10:06.034Z,2.30
2019-04-26T01:12:32.489Z,3.33
2019-04-26T01:14:58.777Z,1.85
2019-04-26T01:17:25.034Z,5.67
2019-04-26T01:19:53.082Z,2.62
2019-04-26T01:22:25.799Z,2.95
2019-04-26T01:24:54.074Z,4.42
2019-04-26T01:27:25.534Z,2.05
2019-04-26T01:29:55.716Z,3.35
2019-04-26T01:32:22.553Z,2.72
2019-04-26T01:34:49.713Z,3.27
2019-04-26T01:37:17.087Z,2.83
2019-04-26T01:39:49.158Z,2.85
2019-04-26T01:42:27.008Z,1.92
2019-04-26T01:45:17.358Z,3.50
2019-04-26T01:47:46.047Z,3.37
2019-04-26T01:50:12.873Z,3.30
2019-04-26T01:52:42.162Z,2.35
2019-04-26T01:55:09.058Z,5.45
2019-04-26T01:57:35.824Z,3.05
2019-04-26T02:00:06.282Z,2.80
2019-04-26T02:02:40.232Z,2.65
2019-04-26T02:05:14.228Z,2.75
2019-04-26T02:07:40.901Z,1.80
2019-04-26T02:10:16.891Z,3.00
2019-04-26T02:12:45.374Z,2.52
2019-04-26T02:15:11.850Z,2.45
2019-04-26T02:17:39.471Z,3.58
2019-04-26T02:20:07.747Z,3.17
2019-04-26T02:22:47.144Z,2.22
2019-04-26T02:25:13.691Z,3.15
2019-04-26T02:27:40.153Z,1.90
2019-04-26T02:30:07.795Z,2.98
2019-04-26T02:32:36.949Z,3.85
2019-04-26T02:35:04.932Z,3.58
2019-04-26T02:37:32.764Z,2.98
2019-04-26T02:40:00.258Z,1.65
2019-04-26T02:42:39.382Z,1.52
2019-04-26T02:45:30.910Z,2.27
2019-04-26T02:48:18.264Z,3.62
2019-04-26T02:51:03.687Z,2.65
2019-04-26T02:53:52.057Z,3.33
2019-04-26T02:56:24.940Z,2.15
2019-04-26T02:58:57.999Z,1.98
2019-04-26T03:01:26.376Z,3.15
2019-04-26T03:03:53.655Z,2.10
2019-04-26T03:06:20.308Z,2.50
2019-04-26T03:08:47.214Z,1.70
2019-04-26T03:11:17.824Z,3.12
2019-04-26T03:13:49.467Z,1.50
2019-04-26T03:16:27.272Z,2.87
2019-04-26T03:19:05.457Z,2.40
2019-04-26T03:21:43.294Z,4.53
2019-04-26T03:24:22.458Z,2.45
2019-04-26T03:27:04.964Z,1.52
2019-04-26T03:29:41.990Z,2.55
2019-04-26T03:32:27.864Z,2.30
2019-04-26T03:34:59.824Z,3.33
2019-04-26T03:37:36.558Z,2.15
2019-04-26T03:40:28.184Z,3.42
2019-04-26T03:43:25.857Z,2.42
2019-04-26T03:46:23.633Z,2.92
2019-04-26T03:48:59.734Z,3.58
2019-04-26T03:51:46.396Z,2.47
2019-04-26T03:54:22.432Z,2.35
2019-04-26T03:56:56.910Z,2.65
2019-04-26T03:59:42.167Z,2.75
2019-04-26T04:02:30.864Z,4.25
2019-04-26T04:05:12.034Z,3.35
2019-04-26T04:07:47.285Z,3.52
2019-04-26T04:10:15.997Z,3.80
2019-04-26T04:12:51.739Z,5.30
2019-04-26T04:15:28.525Z,3.72
2019-04-26T04:18:03.279Z,4.20
2019-04-26T04:20:44.920Z,4.30
2019-04-26T04:23:30.992Z,3.17
2019-04-26T04:25:59.593Z,6.75
2019-04-26T04:28:52.579Z,4.10
2019-04-26T04:31:58.699Z,4.53
2019-04-26T04:34:54.640Z,3.87
2019-04-26T04:38:02.229Z,3.37
2019-04-26T04:41:09.223Z,4.42
2019-04-26T04:43:42.792Z,5.03
2019-04-26T04:46:49.705Z,4.45
2019-04-26T04:49:21.355Z,6.75
2019-04-26T04:51:51.708Z,3.70
2019-04-26T04:54:30.567Z,6.17
2019-04-26T04:57:18.996Z,8.30
2019-04-26T05:00:20.913Z,6.55
2019-04-26T05:03:10.455Z,9.88
2019-04-26T05:06:07.544Z,9.95
2019-04-26T05:08:45.518Z,7.55
2019-04-26T05:11:19.615Z,12.13
2019-04-26T05:13:59.203Z,13.35
2019-04-26T05:16:55.230Z,10.63
2019-04-26T05:19:28.695Z,11.28
2019-04-26T05:22:32.531Z,11.57
2019-04-26T05:25:16.612Z,10.43
2019-04-26T05:27:57.577Z,8.48
2019-04-26T05:31:06.432Z,10.78
2019-04-26T05:33:36.828Z,6.87
2019-04-26T05:36:19.635Z,10.88
2019-04-26T05:39:02.035Z,10.08
2019-04-26T05:42:25.020Z,9.15
2019-04-26T05:45:20.769Z,9.53
2019-04-26T05:48:35.564Z,12.15
2019-04-26T05:51:43.131Z,10.05
2019-04-26T05:54:58.829Z,10.43
2019-04-26T05:57:30.822Z,14.38
2019-04-26T06:00:35.922Z,9.20
2019-04-26T06:03:40.285Z,9.33
2019-04-26T06:06:21.607Z,10.48
2019-04-26T06:09:20.546Z,9.20
2019-04-26T06:11:54.618Z,9.05
2019-04-26T06:14:44.153Z,8.15
2019-04-26T06:17:51.743Z,7.42
2019-04-26T06:20:23.561Z,9.00
2019-04-26T06:23:08.935Z,9.10
2019-04-26T06:25:55.681Z,5.75
2019-04-26T06:28:44.058Z,9.70
2019-04-26T06:31:14.274Z,7.95
2019-04-26T06:33:59.504Z,9.18
2019-04-26T06:36:31.175Z,8.35
2019-04-26T06:39:11.559Z,6.42
2019-04-26T06:42:00.787Z,6.75
2019-04-26T06:44:32.942Z,8.55
2019-04-26T06:47:28.615Z,8.45
2019-04-26T06:50:23.115Z,9.60
2019-04-26T06:52:59.305Z,9.25
2019-04-26T06:55:30.691Z,8.50
2019-04-26T06:58:22.421Z,6.20
2019-04-26T07:01:15.581Z,11.03
2019-04-26T07:04:21.644Z,12.93
2019-04-26T07:07:07.419Z,13.20
2019-04-26T07:09:38.085Z,14.20
2019-04-26T07:12:28.253Z,13.78
2019-04-26T07:15:02.270Z,13.85
2019-04-26T07:18:02.167Z,12.23
2019-04-26T07:20:36.286Z,8.40
2019-04-26T07:23:23.653Z,10.80
2019-04-26T07:25:54.465Z,7.35
2019-04-26T07:28:47.277Z,8.15
2019-04-26T07:31:20.423Z,6.53
2019-04-26T07:33:58.020Z,4.25
2019-04-26T07:36:51.781Z,6.15
2019-04-26T07:39:47.888Z,7.17
2019-04-26T07:42:43.818Z,5.85
2019-04-26T07:45:21.988Z,5.42
2019-04-26T07:48:18.020Z,4.35
2019-04-26T07:51:21.592Z,5.35
2019-04-26T07:54:22.544Z,6.00
2019-04-26T07:57:23.526Z,5.12
2019-04-26T08:00:18.017Z,5.12
2019-04-26T08:03:10.891Z,5.75
2019-04-26T08:05:53.475Z,6.15
2019-04-26T08:08:22.757Z,10.10
2019-04-26T08:10:55.876Z,4.65
2019-04-26T08:13:25.310Z,7.87
2019-04-26T08:18:59.612Z,5.83
2019-04-26T08:21:31.944Z,6.78
2019-04-26T08:24:07.900Z,7.55
2019-04-26T08:26:38.119Z,5.22
2019-04-26T08:29:07.039Z,4.60
2019-04-26T08:31:37.272Z,7.45
2019-04-26T08:34:08.691Z,5.50
2019-04-26T08:36:38.730Z,5.47
2019-04-26T08:39:16.693Z,6.20
2019-04-26T08:41:45.363Z,3.83
2019-04-26T08:44:26.381Z,7.00
2019-04-26T08:47:16.723Z,6.22
2019-04-26T08:49:43.120Z,6.20
2019-04-26T08:52:14.489Z,6.85
2019-04-26T08:54:45.836Z,5.95
2019-04-26T08:57:13.200Z,6.20
2019-04-26T08:59:49.413Z,7.03
2019-04-26T09:02:21.165Z,9.93
2019-04-26T09:05:07.082Z,6.72
2019-04-26T09:07:37.952Z,5.28
2019-04-26T09:10:11.348Z,4.65
2019-04-26T09:12:39.286Z,9.10
2019-04-26T09:15:11.463Z,5.10
2019-04-26T09:17:37.937Z,7.80
2019-04-26T09:20:07.905Z,6.70
2019-04-26T09:22:56.625Z,6.80
2019-04-26T09:25:25.781Z,7.53
2019-04-26T09:27:54.132Z,5.55
2019-04-26T09:30:33.366Z,9.63
2019-04-26T09:32:52.728Z,6.30
2019-04-26T09:35:24.917Z,4.83
2019-04-26T09:37:51.439Z,5.10
2019-04-26T09:40:21.612Z,7.65
2019-04-26T09:42:48.080Z,6.47
2019-04-26T09:45:22.052Z,6.62
2019-04-26T09:47:50.370Z,6.15
2019-04-26T09:50:18.726Z,5.33
2019-04-26T09:52:46.999Z,4.58
2019-04-26T09:55:13.750Z,4.35
2019-04-26T09:57:40.386Z,6.40
2019-04-26T10:00:10.312Z,4.47
2019-04-26T10:02:38.829Z,5.17
2019-04-26T10:05:08.043Z,3.45
2019-04-26T10:07:37.524Z,2.92
2019-04-26T10:10:03.685Z,3.42
2019-04-26T10:12:34.990Z,3.72
2019-04-26T10:15:05.869Z,2.85
2019-04-26T10:17:33.540Z,4.25
2019-04-26T10:19:59.926Z,3.02
2019-04-26T10:22:28.215Z,3.00
2019-04-26T10:24:54.597Z,4.12
2019-04-26T10:27:21.056Z,5.30
2019-04-26T10:29:47.589Z,4.53
2019-04-26T10:32:14.247Z,7.75
2019-04-26T10:34:42.819Z,5.67
2019-04-26T10:37:09.008Z,4.62
2019-04-26T10:39:36.999Z,6.15
2019-04-26T10:42:03.558Z,4.78
2019-04-26T10:44:29.948Z,5.42
2019-04-26T10:46:59.772Z,5.78
2019-04-26T10:49:41.293Z,5.65
2019-04-26T10:52:11.944Z,6.87
2019-04-26T10:54:44.586Z,5.80
2019-04-26T10:57:21.130Z,8.23
2019-04-26T10:59:55.344Z,5.78
2019-04-26T11:02:21.910Z,8.18
2019-04-26T11:04:48.398Z,7.80
2019-04-26T11:07:14.827Z,4.85
2019-04-26T11:09:41.288Z,5.58
2019-04-26T11:12:11.380Z,6.25
2019-04-26T11:14:37.955Z,5.97
2019-04-26T11:17:06.455Z,5.00
2019-04-26T11:19:35.464Z,5.42
2019-04-26T11:22:01.174Z,5.50
2019-04-26T11:24:27.547Z,5.40
2019-04-26T11:26:56.776Z,8.78
2019-04-26T11:29:24.960Z,7.55
2019-04-26T11:31:54.048Z,8.75
2019-04-26T11:34:23.636Z,8.73
2019-04-26T11:36:56.259Z,8.30
2019-04-26T11:39:22.547Z,7.97
2019-04-26T11:41:50.718Z,10.88
2019-04-26T11:44:23.431Z,8.53
2019-04-26T11:46:48.685Z,7.20
2019-04-26T11:49:14.969Z,8.08
2019-04-26T11:51:41.393Z,8.85
2019-04-26T11:54:07.841Z,10.78
2019-04-26T11:56:37.514Z,9.35
2019-04-26T11:59:02.765Z,9.90
2019-04-26T12:01:29.727Z,8.68
2019-04-26T12:04:13.182Z,10.30
2019-04-26T12:06:47.206Z,12.90
2019-04-26T12:09:31.127Z,8.93
2019-04-26T12:12:04.389Z,8.33
2019-04-26T12:14:29.477Z,7.67
2019-04-26T12:16:59.148Z,9.43
2019-04-26T12:19:22.357Z,9.75
2019-04-26T12:21:48.662Z,8.03
2019-04-26T12:24:16.946Z,8.38
2019-04-26T12:26:46.251Z,8.33
2019-04-26T12:29:14.770Z,9.40
2019-04-26T12:31:39.742Z,8.93
2019-04-26T12:34:05.985Z,7.90
2019-04-26T12:36:32.539Z,6.75
2019-04-26T12:39:02.210Z,6.97
2019-04-26T12:41:39.939Z,4.30
2019-04-26T12:43:59.695Z,4.83
2019-04-26T12:46:27.152Z,5.45
2019-04-26T12:48:53.494Z,3.67
2019-04-26T12:51:19.945Z,2.98
2019-04-26T12:53:46.374Z,4.55
2019-04-26T12:56:13.182Z,3.50
2019-04-26T12:58:39.553Z,5.33
2019-04-26T13:01:12.250Z,6.33
2019-04-26T13:03:38.879Z,3.65
2019-04-26T13:06:05.440Z,5.45
2019-04-26T13:08:31.772Z,4.80
2019-04-26T13:11:16.497Z,5.67
2019-04-26T13:14:01.284Z,7.15
2019-04-26T13:16:29.640Z,7.30
2019-04-26T13:18:56.221Z,6.92
2019-04-26T13:21:23.521Z,6.47
2019-04-26T13:23:50.238Z,5.50
2019-04-26T13:26:16.555Z,5.20
2019-04-26T13:28:43.113Z,7.15
2019-04-26T13:31:09.646Z,8.45
2019-04-26T13:33:35.959Z,7.03
2019-04-26T13:36:03.383Z,5.80
2019-04-26T13:38:29.954Z,7.30
2019-04-26T13:40:59.650Z,7.10
2019-04-26T13:43:27.072Z,6.67
2019-04-26T13:45:57.766Z,7.22
2019-04-26T13:48:26.112Z,8.38
2019-04-26T13:51:10.707Z,8.30
2019-04-26T13:53:37.244Z,9.90
2019-04-26T13:56:03.801Z,7.92
2019-04-26T13:58:30.247Z,6.80
2019-04-26T14:00:56.861Z,8.23
2019-04-26T14:03:27.191Z,7.72
2019-04-26T14:05:51.786Z,9.25
2019-04-26T14:08:18.496Z,11.28
2019-04-26T14:10:45.608Z,11.60
2019-04-26T14:13:13.080Z,12.60
2019-04-26T14:15:43.971Z,11.75
2019-04-26T14:18:08.140Z,11.03
2019-04-26T14:20:34.941Z,12.73
2019-04-26T14:23:19.804Z,10.70
2019-04-26T14:25:50.879Z,10.15
2019-04-26T14:28:20.339Z,11.70
2019-04-26T14:30:47.155Z,10.18
2019-04-26T14:33:14.084Z,11.97
2019-04-26T14:35:40.563Z,10.72
2019-04-26T14:38:07.180Z,10.32
2019-04-26T14:40:33.610Z,10.23
2019-04-26T14:43:07.029Z,10.03
2019-04-26T14:45:28.556Z,13.15
2019-04-26T14:47:55.130Z,10.48
2019-04-26T14:50:21.740Z,10.13
2019-04-26T14:52:48.040Z,8.55
2019-04-26T14:55:16.666Z,11.40
2019-04-26T14:57:42.815Z,9.15
2019-04-26T15:00:12.601Z,9.10
2019-04-26T15:02:47.697Z,8.33
2019-04-26T15:05:26.139Z,7.67
2019-04-26T15:07:53.818Z,6.15
2019-04-26T15:10:21.003Z,6.53
2019-04-26T15:12:52.707Z,5.35
2019-04-26T15:15:15.834Z,5.47
2019-04-26T15:17:42.330Z,4.97
2019-04-26T15:20:08.850Z,5.80
2019-04-26T15:22:35.433Z,5.03
2019-04-26T15:25:03.431Z,8.48
2019-04-26T15:27:32.225Z,7.78
2019-04-26T15:30:01.525Z,6.05
2019-04-26T15:32:28.002Z,7.95
2019-04-26T15:34:54.978Z,6.87
2019-04-26T15:37:25.090Z,5.90
2019-04-26T15:40:08.868Z,5.85
2019-04-26T15:43:01.192Z,8.38
2019-04-26T15:45:39.855Z,4.85
2019-04-26T15:48:08.282Z,5.47
2019-04-26T15:50:36.433Z,4.78
2019-04-26T15:53:06.702Z,6.42
2019-04-26T15:55:33.868Z,4.58
2019-04-26T15:58:02.653Z,4.37
2019-04-26T16:00:28.456Z,4.00
2019-04-26T16:02:58.654Z,5.40
2019-04-26T16:05:29.467Z,3.58
2019-04-26T16:07:53.173Z,2.95
2019-04-26T16:10:19.675Z,4.87
2019-04-26T16:12:46.287Z,1.98
2019-04-26T16:15:14.670Z,2.12
2019-04-26T16:17:41.315Z,2.77
2019-04-26T16:20:09.045Z,2.10
2019-04-26T16:22:35.388Z,3.35
2019-04-26T16:25:05.211Z,3.98
2019-04-26T16:27:34.099Z,2.90
2019-04-26T16:30:15.957Z,2.05
2019-04-26T16:33:03.071Z,2.70
2019-04-26T16:35:29.496Z,2.62
2019-04-26T16:37:59.824Z,3.75
2019-04-26T16:40:26.037Z,2.75
2019-04-26T16:42:56.632Z,1.95
2019-04-26T16:45:20.606Z,2.12
2019-04-26T16:47:48.800Z,3.20
2019-04-26T16:50:25.093Z,4.78
2019-04-26T16:52:47.537Z,2.90
2019-04-26T16:55:17.820Z,4.05
2019-04-26T16:57:43.915Z,2.75
2019-04-26T17:00:08.238Z,1.72
2019-04-26T17:02:36.939Z,3.02
2019-04-26T17:05:19.060Z,3.33
2019-04-26T17:07:39.042Z,2.60
2019-04-26T17:10:03.366Z,2.33
2019-04-26T17:12:29.502Z,3.55
2019-04-26T17:14:55.865Z,2.85
2019-04-26T17:17:22.424Z,2.95
2019-04-26T17:19:56.181Z,2.67
2019-04-26T17:22:44.488Z,3.45
2019-04-26T17:25:10.484Z,3.50
2019-04-26T17:27:40.285Z,4.37
2019-04-26T17:30:07.748Z,4.45
2019-04-26T17:32:35.086Z,3.05
2019-04-26T17:35:04.699Z,4.92
2019-04-26T17:37:30.538Z,4.20
2019-04-26T17:39:57.084Z,4.12
2019-04-26T17:42:25.141Z,3.65
2019-04-26T17:44:51.744Z,5.78
2019-04-26T17:47:18.058Z,5.50
2019-04-26T17:49:44.427Z,6.72
2019-04-26T17:52:11.655Z,7.40
2019-04-26T17:54:46.993Z,5.60
2019-04-26T17:57:08.974Z,7.45
2019-04-26T17:59:36.773Z,8.30
2019-04-26T18:02:02.824Z,6.92
2019-04-26T18:04:36.144Z,7.90
2019-04-26T18:07:03.826Z,7.50
2019-04-26T18:09:42.944Z,7.53
2019-04-26T18:12:00.043Z,9.15
2019-04-26T18:14:29.947Z,8.33
2019-04-26T18:16:57.159Z,10.70
2019-04-26T18:19:31.358Z,11.28
2019-04-26T18:22:00.225Z,14.50
2019-04-26T18:24:27.638Z,14.03
2019-04-26T18:26:59.199Z,14.03
2019-04-26T18:29:28.832Z,15.90
2019-04-26T18:31:53.490Z,16.20
2019-04-26T18:34:19.738Z,18.35
2019-04-26T18:36:46.108Z,18.40
2019-04-26T18:39:12.830Z,19.85
2019-04-26T18:41:39.194Z,21.00
2019-04-26T18:44:05.710Z,17.67
2019-04-26T18:46:35.715Z,22.40
2019-04-26T18:49:04.346Z,21.15
2019-04-26T18:51:30.664Z,18.05
2019-04-26T18:54:02.802Z,18.48
2019-04-26T18:56:33.707Z,18.77
2019-04-26T18:58:58.003Z,17.77
2019-04-26T19:01:24.436Z,16.95
2019-04-26T19:03:50.725Z,16.77
2019-04-26T19:06:28.708Z,16.00
2019-04-26T19:08:50.163Z,15.93
2019-04-26T19:11:35.632Z,18.32
2019-04-26T19:14:21.885Z,17.65
2019-04-26T19:16:58.706Z,17.23
2019-04-26T19:19:29.167Z,20.55
2019-04-26T19:21:57.491Z,19.30
2019-04-26T19:24:23.836Z,21.93
2019-04-26T19:26:51.911Z,22.80
2019-04-26T19:29:22.496Z,26.45
2019-04-26T19:31:46.487Z,24.52
2019-04-26T19:34:13.274Z,24.45
2019-04-26T19:36:39.826Z,27.15
2019-04-26T19:39:06.570Z,30.75
2019-04-26T19:41:33.135Z,27.07
2019-04-26T19:43:59.465Z,29.10
2019-04-26T19:46:31.591Z,32.40
2019-04-26T19:49:16.673Z,33.28
2019-04-26T19:51:59.757Z,33.75
2019-04-26T19:54:38.481Z,35.55
2019-04-26T19:57:08.800Z,31.93
2019-04-26T19:59:35.347Z,36.23
2019-04-26T20:02:01.851Z,37.58
2019-04-26T20:04:30.379Z,33.20
2019-04-26T20:06:56.916Z,36.93
2019-04-26T20:09:26.323Z,36.50
2019-04-26T20:11:58.131Z,40.15
2019-04-26T20:14:23.019Z,34.92
2019-04-26T20:16:48.860Z,39.03
2019-04-26T20:19:17.915Z,39.38
2019-04-26T20:21:45.386Z,36.55
2019-04-26T20:24:12.751Z,35.20
2019-04-26T20:26:41.911Z,31.20
2019-04-26T20:29:10.181Z,34.48
2019-04-26T20:31:44.914Z,37.78
2019-04-26T20:34:10.945Z,35.45
2019-04-26T20:36:41.560Z,34.65
2019-04-26T20:39:06.497Z,35.23
2019-04-26T20:41:32.937Z,33.67
2019-04-26T20:44:06.899Z,34.63
2019-04-26T20:46:29.651Z,33.48
2019-04-26T20:48:56.382Z,36.03
2019-04-26T20:51:24.255Z,33.45
2019-04-26T20:53:50.965Z,30.80
2019-04-26T20:56:18.747Z,39.20
2019-04-26T20:59:05.129Z,36.03
2019-04-26T21:01:32.088Z,31.40
2019-04-26T21:03:58.505Z,35.13
2019-04-26T21:06:24.895Z,39.98
2019-04-26T21:08:52.245Z,35.88
2019-04-26T21:11:19.730Z,36.93
2019-04-26T21:13:46.306Z,39.50
2019-04-26T21:16:15.343Z,40.10
2019-04-26T21:18:44.114Z,40.03
2019-04-26T21:21:10.580Z,40.23
2019-04-26T21:23:40.022Z,42.98
2019-04-26T21:26:11.706Z,43.78
2019-04-26T21:28:42.770Z,49.08
2019-04-26T21:31:10.233Z,47.65
2019-04-26T21:33:39.112Z,47.35
2019-04-26T21:36:23.030Z,46.33
2019-04-26T21:38:52.931Z,43.13
2019-04-26T21:41:21.188Z,42.30
2019-04-26T21:43:47.486Z,39.18
2019-04-26T21:46:18.473Z,39.53
2019-04-26T21:48:44.593Z,41.45
2019-04-26T21:51:14.451Z,38.80
2019-04-26T21:53:42.158Z,35.00
2019-04-26T21:56:07.452Z,32.53
2019-04-26T21:58:35.165Z,38.23
2019-04-26T22:01:03.463Z,35.58
2019-04-26T22:03:30.012Z,34.18
2019-04-26T22:05:56.517Z,35.73
2019-04-26T22:08:25.787Z,31.73
2019-04-26T22:10:53.472Z,33.35
2019-04-26T22:13:29.008Z,38.40
2019-04-26T22:16:29.253Z,37.30
2019-04-26T22:18:50.541Z,31.73
2019-04-26T22:21:28.885Z,36.38
2019-04-26T22:23:58.609Z,40.75
2019-04-26T22:26:24.851Z,42.15
2019-04-26T22:28:51.090Z,46.02
2019-04-26T22:31:17.605Z,49.05
2019-04-26T22:33:44.596Z,51.98
2019-04-26T22:36:13.028Z,51.53
2019-04-26T22:38:39.416Z,50.92
2019-04-26T22:41:05.776Z,54.15
2019-04-26T22:43:44.786Z,54.45
2019-04-26T22:46:26.289Z,57.85
2019-04-26T22:48:54.720Z,53.73
2019-04-26T22:51:16.990Z,53.60
2019-04-26T22:53:43.403Z,47.45
2019-04-26T22:56:09.921Z,43.35
2019-04-26T22:58:36.480Z,48.65
2019-04-26T23:01:06.136Z,51.33
2019-04-26T23:03:31.270Z,59.00
2019-04-26T23:05:57.954Z,54.63
2019-04-26T23:08:24.345Z,52.62
2019-04-26T23:10:53.104Z,54.83
2019-04-26T23:13:41.244Z,57.73
2019-04-26T23:16:11.292Z,57.43
2019-04-26T23:18:53.815Z,56.85
2019-04-26T23:21:25.091Z,55.45
2019-04-26T23:23:51.350Z,57.93
2019-04-26T23:26:17.688Z,57.38
2019-04-26T23:28:44.069Z,58.52
2019-04-26T23:31:10.514Z,53.25
2019-04-26T23:33:36.909Z,59.15
2019-04-26T23:36:03.376Z,48.92
2019-04-26T23:38:36.173Z,50.10
2019-04-26T23:41:01.210Z,56.63
2019-04-26T23:43:26.070Z,51.30
2019-04-26T23:45:53.064Z,58.02
2019-04-26T23:48:19.466Z,57.27
2019-04-26T23:50:45.820Z,53.90
2019-04-26T23:53:13.823Z,55.15
2019-04-26T23:55:43.892Z,56.30
2019-04-26T23:58:10.725Z,55.12
